Airfield :
LOGIN :

Register | Disclaimer

   EN    FR    IT 

 










Legend :    VFR   Marginal VFR   IFR   Intensive IFR   Very Intensive IFR
Visi :
Ceiling :
>= 8 km
>= 3000ft
5 to 8 km
1000 to 3000 ft
1500m to 5 km
500 to 1000 ft
800 to 1500m
200 to 500 ft
< 800m
< 200 ft
Symbols :   Thunderstorms  Fog  Heavy snow  Heavy precipitations  Wind > 20 kt
SIGMETs :     Misc.  Thunderstorms  Icing  Turbulence  Mountain Waves  Volcanic Ashes






- Airport Elevation : 231 ft
- IATA code : SZE


EGSY - Sheffield City Heliport

CURRENT METAR :
  • 191150Z 23013KT 9999 FEW010 BKN019 10/08 Q1004

EXPIRED METARs :
  • 191120Z 23016KT 9999 FEW010 BKN019 10/08 Q1005
  • 191050Z 23013KT 9999 FEW010 BKN018 10/07 Q1005
  • 190950Z 24014KT 9000 -SHRA SCT012 BKN016 10/08 Q1006
  • 190920Z 26022KT 8000 -SHRA BKN009 09/08 Q1006

TAF TAF EGSY
Valid from the 19 at 12:00 until the 19 at 17:00 UTC


191059Z 1912/1917 23018G30KT 9999 BKN016
TEMPO 1912/1917 6000 RA BKN012
PROB30
TEMPO 1915/1917 4000 +RA BKN008



MET'MAP, your aeronautical weather chart ! - Copyright ORBIFLY December 2007 - Disclaimer

ORBIFLY MET'MAP TEAM :

Programming & Development : Alexandra Zaïnal
Concept & original design : Baudouin d'Aumeries
Assistance for programming : Marc-Olivier Méhu
Technical & hardware support : Manuel Goepfert

Contact : metmap@orbifly.com




SOURCES & CREDITS :

   NOAA